Time,TemperatureF,DewpointF,PressureIn,WindDirection,WindDirectionDegrees,WindSpeedMPH,WindSpeedGustMPH,Humidity,HourlyPrecipIn,Conditions,Clouds,dailyrainin,SoftwareType,DateUTC
2013-06-16 00:00:00,46.0,-99.9,-100.00,North,-999,-999.0,-999.0,-999,-99.99,,,0.00,,2013-06-16 07:00:00,
2013-06-16 00:54:00,46.0,-99.9,-100.00,North,-999,-999.0,-999.0,-999,-99.99,,,0.00,,2013-06-16 07:54:00,
2013-06-16 02:00:00,45.0,-99.9,-100.00,NNE,21,10.0,13.0,-999,-99.99,,,0.00,,2013-06-16 09:00:00,
2013-06-16 02:52:00,45.0,-99.9,-100.00,NNE,21,10.0,13.0,-999,-99.99,,,0.00,,2013-06-16 09:52:00,
2013-06-16 03:00:00,42.0,-99.9,-100.00,NNE,24,10.0,12.0,-999,-99.99,,,0.00,,2013-06-16 10:00:00,
2013-06-16 03:54:00,42.0,-99.9,-100.00,NNE,24,10.0,12.0,-999,-99.99,,,0.00,,2013-06-16 10:54:00,
2013-06-16 08:00:00,54.0,-99.9,-100.00,NNE,20,7.0,10.0,-999,-99.99,,,0.00,,2013-06-16 15:00:00,
2013-06-16 08:53:00,54.0,-99.9,-100.00,NNE,20,7.0,10.0,-999,-99.99,,,0.00,,2013-06-16 15:53:00,
2013-06-16 09:00:00,60.0,-99.9,-100.00,North,11,9.0,13.0,-999,-99.99,,,0.00,,2013-06-16 16:00:00,
2013-06-16 10:00:00,63.0,-99.9,-100.00,NE,38,7.0,12.0,-999,-99.99,,,0.01,,2013-06-16 17:00:00,
2013-06-16 11:00:00,65.0,-99.9,-100.00,North,-999,-999.0,-999.0,-999,-99.99,,,-99.99,,2013-06-16 18:00:00,
2013-06-16 11:53:00,65.0,-99.9,-100.00,North,-999,-999.0,-999.0,-999,-99.99,,,-99.99,,2013-06-16 18:53:00,
2013-06-16 12:00:00,68.0,-99.9,-100.00,South,184,4.0,10.0,-999,-99.99,,,-99.99,,2013-06-16 19:00:00,
2013-06-16 12:54:00,68.0,-99.9,-100.00,South,184,4.0,10.0,-999,-99.99,,,-99.99,,2013-06-16 19:54:00,
2013-06-16 13:00:00,66.0,-99.9,-100.00,SSW,197,6.0,13.0,-999,-99.99,,,-99.99,,2013-06-16 20:00:00,
2013-06-16 13:53:00,66.0,-99.9,-100.00,SSW,197,6.0,13.0,-999,-99.99,,,-99.99,,2013-06-16 20:53:00,
2013-06-16 14:00:00,69.0,-99.9,-100.00,SW,214,8.0,16.0,-999,-99.99,,,-99.99,,2013-06-16 21:00:00,
2013-06-16 14:53:00,69.0,-99.9,-100.00,SW,214,8.0,16.0,-999,-99.99,,,-99.99,,2013-06-16 21:53:00,
2013-06-16 15:00:00,69.0,-99.9,-100.00,SSW,196,8.0,16.0,-999,-99.99,,,-99.99,,2013-06-16 22:00:00,
2013-06-16 15:52:00,69.0,-99.9,-100.00,SSW,196,8.0,16.0,-999,-99.99,,,-99.99,,2013-06-16 22:52:00,
2013-06-16 16:00:00,69.0,-99.9,-100.00,SSW,213,12.0,22.0,-999,-99.99,,,0.00,,2013-06-16 23:00:00,
2013-06-16 16:52:00,69.0,-99.9,-100.00,SSW,213,12.0,22.0,-999,-99.99,,,0.00,,2013-06-16 23:52:00,
2013-06-16 17:00:00,71.0,-99.9,-100.00,SSW,207,11.0,24.0,-999,-99.99,,,0.00,,2013-06-17 00:00:00,
2013-06-16 17:53:00,71.0,-99.9,-100.00,SSW,207,11.0,24.0,-999,-99.99,,,0.00,,2013-06-17 00:53:00,
2013-06-16 18:00:00,69.0,-99.9,-100.00,SSW,194,15.0,22.0,-999,-99.99,,,0.01,,2013-06-17 01:00:00,
2013-06-16 18:53:00,69.0,-99.9,-100.00,SSW,194,15.0,22.0,-999,-99.99,,,0.01,,2013-06-17 01:53:00,
2013-06-16 19:00:00,68.0,-99.9,-100.00,SSW,200,12.0,20.0,-999,-99.99,,,0.00,,2013-06-17 02:00:00,
2013-06-16 20:00:00,61.0,-99.9,-100.00,SSW,192,7.0,15.0,-999,-99.99,,,0.00,,2013-06-17 03:00:00,
2013-06-16 21:00:00,58.0,-99.9,-100.00,NE,50,2.0,6.0,-999,-99.99,,,0.00,,2013-06-17 04:00:00,
2013-06-16 22:00:00,55.0,-99.9,-100.00,North,-999,-999.0,-999.0,-999,-99.99,,,0.00,,2013-06-17 05:00:00,
2013-06-16 23:00:00,53.0,-99.9,-100.00,ENE,75,4.0,8.0,-999,-99.99,,,0.00,,2013-06-17 06:00:00,